International Virtual Aviation Organisation

Russian Federation and Kazakhstan MCD

 
ULPB 300000Z AUTO 12003MPS 090V210 9999 // M02/M03 Q1030 RMK QBB200 QFE768/1025
QNH:(hPa/inHg/mmHg)1030 / 30.42 / 773
QFE:(hPa/inHg/mmHg)1024 / 30.25 / 768
Temperature-2
Dew Point-3
Visibility> 10000
Weather
Cloud Cover
Transition Height900 m./3200 ft.
Transition LevelFL40
SQUAWK